Time;durP1;ratioP1;P1;durP2;ratioP2;P2;SDS_P1;SDS_P2;PMS_P1;PMS_P2;Temp;Humidity;BMP_temperature;BMP_pressure;BME280_temperature;BME280_humidity;BME280_pressure;Samples;Min_cycle;Max_cycle;Signal;HPM_P1;HPM_P2
2022/03/11 00:01:54;;;;;;;2.95;1.10;;;6.70;58.80;;;;;;5034509;28;20057;-80
2022/03/11 00:04:37;;;;;;;3.38;1.30;;;6.70;58.80;;;;;;5027690;28;20047;-79
2022/03/11 00:07:07;;;;;;;3.00;1.35;;;6.70;58.80;;;;;;5038116;28;20489;-78
2022/03/11 00:09:36;;;;;;;3.13;1.30;;;6.70;58.80;;;;;;5024278;28;20056;-78
2022/03/11 00:12:06;;;;;;;3.22;1.20;;;6.60;58.80;;;;;;5039254;28;20703;-79
2022/03/11 00:14:34;;;;;;;3.88;1.50;;;6.60;58.90;;;;;;5042964;28;20048;-78
2022/03/11 00:17:08;;;;;;;4.15;1.42;;;6.60;59.00;;;;;;5005323;28;20508;-77
2022/03/11 00:19:36;;;;;;;3.92;1.67;;;6.50;59.10;;;;;;5026972;28;20132;-78
2022/03/11 00:22:22;;;;;;;3.20;1.50;;;6.50;59.20;;;;;;5038474;28;20639;-78
2022/03/11 00:24:58;;;;;;;2.80;1.25;;;6.50;59.10;;;;;;5027058;28;20048;-78
2022/03/11 00:27:25;;;;;;;4.30;2.10;;;6.50;59.20;;;;;;5040974;28;20036;-79
2022/03/11 00:29:59;;;;;;;3.28;1.30;;;6.50;59.30;;;;;;5015261;28;20056;-79
2022/03/11 00:32:38;;;;;;;3.83;1.40;;;6.40;59.30;;;;;;5024430;28;20139;-79
2022/03/11 00:35:25;;;;;;;3.53;1.55;;;6.40;59.30;;;;;;5057742;28;20116;-78
2022/03/11 00:38:25;;;;;;;3.58;1.35;;;6.40;59.50;;;;;;5041994;28;20044;-78
2022/03/11 00:41:01;;;;;;;4.28;1.35;;;6.30;59.60;;;;;;5048002;28;20170;-79
2022/03/11 00:43:42;;;;;;;3.33;1.52;;;6.30;59.60;;;;;;5020902;28;20053;-78
2022/03/11 00:46:10;;;;;;;3.65;1.70;;;6.30;59.70;;;;;;5028631;28;20041;-79
2022/03/11 00:48:54;;;;;;;2.80;1.25;;;6.20;59.80;;;;;;5014079;28;20505;-79
2022/03/11 00:51:31;;;;;;;4.68;2.03;;;6.20;59.80;;;;;;5020820;28;20148;-78
2022/03/11 00:54:04;;;;;;;3.83;1.73;;;6.20;59.90;;;;;;5052005;28;20040;-78
2022/03/11 00:57:21;;;;;;;4.68;2.22;;;6.20;60.00;;;;;;4997007;28;20049;-78
2022/03/11 01:00:20;;;;;;;3.50;1.77;;;6.20;59.90;;;;;;4992840;28;20121;-78
2022/03/11 01:02:54;;;;;;;3.75;1.70;;;6.10;59.90;;;;;;5002423;28;20038;-78
2022/03/11 01:05:28;;;;;;;3.58;1.40;;;6.10;60.00;;;;;;4974261;28;20115;-78
2022/03/11 01:08:10;;;;;;;5.45;1.73;;;6.10;60.00;;;;;;4998348;28;20038;-78
2022/03/11 01:11:16;;;;;;;4.00;1.85;;;6.10;60.00;;;;;;4965448;28;20052;-78
2022/03/11 01:13:45;;;;;;;5.30;2.38;;;6.10;60.10;;;;;;4980073;28;20109;-78
2022/03/11 01:16:12;;;;;;;4.35;2.00;;;6.10;60.20;;;;;;5023413;28;20416;-78
2022/03/11 01:18:40;;;;;;;4.05;1.80;;;6.10;60.20;;;;;;5012033;28;20041;-78
2022/03/11 01:21:12;;;;;;;3.63;1.90;;;6.10;60.30;;;;;;5011718;28;20076;-78
2022/03/11 01:23:39;;;;;;;4.75;2.03;;;6.00;60.30;;;;;;5031336;28;20044;-78
2022/03/11 01:26:07;;;;;;;5.20;2.25;;;6.00;60.40;;;;;;5037323;28;20127;-78
2022/03/11 01:28:34;;;;;;;4.25;2.25;;;6.00;60.60;;;;;;5008893;28;20103;-79
2022/03/11 01:31:02;;;;;;;4.43;1.85;;;6.00;60.60;;;;;;5039609;28;20040;-78
2022/03/11 01:33:35;;;;;;;5.95;2.55;;;5.90;60.70;;;;;;5036001;28;20056;-79
2022/03/11 01:36:16;;;;;;;5.25;2.60;;;5.90;60.70;;;;;;5025314;28;20068;-79
2022/03/11 01:38:46;;;;;;;4.35;2.20;;;5.90;60.80;;;;;;5044442;28;20049;-79
2022/03/11 01:41:24;;;;;;;5.70;2.00;;;5.90;60.90;;;;;;5023736;28;20040;-79
2022/03/11 01:44:00;;;;;;;5.50;2.22;;;5.90;60.90;;;;;;5042412;28;20498;-79
2022/03/11 01:46:55;;;;;;;;;;;;;;;;;;;;;
2022/03/11 01:49:26;;;;;;;4.95;2.55;;;5.80;61.10;;;;;;5051524;28;20162;-79
2022/03/11 01:52:32;;;;;;;3.85;1.75;;;5.80;61.10;;;;;;5000041;28;20049;-79
2022/03/11 01:55:10;;;;;;;4.32;1.58;;;5.80;61.10;;;;;;4992282;28;20152;-80
2022/03/11 01:58:31;;;;;;;3.88;1.85;;;5.70;61.30;;;;;;5015949;28;20498;-79
2022/03/11 02:01:12;;;;;;;6.60;2.30;;;5.70;61.30;;;;;;5001669;28;20046;-79
2022/03/11 02:03:49;;;;;;;4.82;2.60;;;5.70;61.40;;;;;;5018965;28;20549;-79
2022/03/11 02:06:22;;;;;;;4.80;2.17;;;5.70;61.40;;;;;;5015250;28;20120;-79
2022/03/11 02:09:03;;;;;;;5.18;1.80;;;5.70;61.50;;;;;;4999422;28;20050;-80
2022/03/11 02:12:04;;;;;;;5.25;2.25;;;5.70;61.60;;;;;;5014569;28;20095;-80
2022/03/11 02:14:36;;;;;;;4.25;2.05;;;5.70;61.50;;;;;;4998751;28;20045;-80
2022/03/11 02:17:04;;;;;;;4.82;2.33;;;5.60;61.60;;;;;;4998515;28;20501;-79
2022/03/11 02:19:32;;;;;;;5.10;2.22;;;5.60;61.70;;;;;;5001035;28;20041;-79
2022/03/11 02:22:07;;;;;;;4.60;2.50;;;5.60;61.80;;;;;;5051687;28;20496;-80
2022/03/11 02:24:37;;;;;;;3.30;1.60;;;5.50;61.90;;;;;;5035373;28;20056;-80
2022/03/11 02:27:38;;;;;;;4.90;2.00;;;5.50;62.00;;;;;;5035871;28;20068;-79
2022/03/11 02:30:20;;;;;;;5.43;1.95;;;5.50;62.10;;;;;;5036226;28;20084;-80
2022/03/11 02:32:48;;;;;;;;;;;5.40;62.20;;;;;;5019112;28;20405;-80
2022/03/11 02:36:02;;;;;;;4.65;1.98;;;5.40;62.40;;;;;;5052632;28;19920;-80
2022/03/11 02:38:33;;;;;;;5.82;1.92;;;5.40;62.50;;;;;;4989600;28;20045;-79
2022/03/11 02:41:43;;;;;;;3.08;1.50;;;5.30;62.50;;;;;;5050141;28;20131;-79
2022/03/11 02:44:29;;;;;;;3.97;1.98;;;5.30;62.60;;;;;;5032899;28;20072;-79
2022/03/11 02:47:14;;;;;;;4.32;1.85;;;5.30;62.60;;;;;;5028329;28;20096;-80
2022/03/11 02:49:46;;;;;;;3.63;1.90;;;5.30;62.70;;;;;;5054533;28;20048;-79
2022/03/11 02:52:21;;;;;;;4.35;1.67;;;5.30;62.80;;;;;;5054345;28;20044;-79
2022/03/11 02:54:50;;;;;;;4.47;1.90;;;5.20;62.80;;;;;;5021863;28;20052;-78
2022/03/11 02:57:17;;;;;;;3.88;1.80;;;5.20;62.90;;;;;;5037252;28;20090;-79
2022/03/11 02:59:45;;;;;;;5.40;2.38;;;5.20;63.00;;;;;;5038273;28;20040;-79
2022/03/11 03:02:19;;;;;;;3.97;1.65;;;5.20;63.10;;;;;;5038462;28;20045;-79
2022/03/11 03:04:52;;;;;;;4.78;2.05;;;5.20;63.10;;;;;;5037965;28;20041;-79
2022/03/11 03:07:30;;;;;;;5.25;2.00;;;5.20;63.10;;;;;;5038207;28;20044;-79
2022/03/11 03:10:08;;;;;;;4.70;1.95;;;5.20;63.20;;;;;;5039095;28;20385;-79
2022/03/11 03:12:36;;;;;;;3.45;1.48;;;5.20;63.20;;;;;;5038271;28;20078;-79
2022/03/11 03:15:09;;;;;;;5.43;2.47;;;5.10;63.30;;;;;;5054310;28;20048;-79
2022/03/11 03:17:37;;;;;;;5.32;2.30;;;5.10;63.40;;;;;;5054472;28;20515;-79
2022/03/11 03:20:08;;;;;;;4.93;2.40;;;5.10;63.40;;;;;;5021707;28;20049;-79
2022/03/11 03:22:44;;;;;;;4.55;2.38;;;5.10;63.40;;;;;;5054490;28;20115;-79
2022/03/11 03:25:16;;;;;;;4.28;1.85;;;5.10;63.50;;;;;;5054850;28;20040;-79
2022/03/11 03:27:49;;;;;;;5.25;2.40;;;5.10;63.60;;;;;;5054236;28;20051;-79
2022/03/11 03:30:18;;;;;;;4.55;2.20;;;5.10;63.60;;;;;;5053621;28;20044;-79
2022/03/11 03:32:49;;;;;;;5.22;2.97;;;5.10;63.60;;;;;;5022681;28;20579;-79
2022/03/11 03:35:18;;;;;;;6.53;3.67;;;5.00;63.70;;;;;;5021623;28;20053;-79
2022/03/11 03:37:46;;;;;;;4.80;3.10;;;5.00;63.60;;;;;;5054160;28;20540;-79
2022/03/11 03:40:19;;;;;;;5.45;2.53;;;5.00;63.60;;;;;;5022468;28;20048;-79
2022/03/11 03:42:47;;;;;;;4.70;2.85;;;5.00;63.70;;;;;;5054100;28;20397;-79
2022/03/11 03:45:15;;;;;;;5.38;2.70;;;5.00;63.80;;;;;;5037619;28;20458;-79
2022/03/11 03:47:50;;;;;;;5.93;2.97;;;5.00;63.80;;;;;;5006173;28;20072;-79
2022/03/11 03:50:19;;;;;;;4.60;2.38;;;5.00;63.90;;;;;;5037439;28;20049;-79
2022/03/11 03:52:47;;;;;;;5.53;2.58;;;4.90;63.90;;;;;;5037427;28;20057;-79
2022/03/11 03:55:14;;;;;;;4.53;2.13;;;4.90;64.00;;;;;;5004753;28;20059;-79
2022/03/11 03:57:41;;;;;;;5.63;2.67;;;4.90;64.10;;;;;;5038042;28;20048;-79
2022/03/11 04:00:11;;;;;;;5.55;2.78;;;4.90;64.20;;;;;;5025091;28;20040;-79
2022/03/11 04:02:49;;;;;;;7.03;3.03;;;4.90;64.10;;;;;;5057695;28;20094;-79
2022/03/11 04:05:18;;;;;;;4.78;2.63;;;4.90;64.20;;;;;;5057349;28;20138;-79
2022/03/11 04:07:49;;;;;;;;;;;4.90;64.30;;;;;;5042054;28;20053;-79
2022/03/11 04:10:18;;;;;;;5.55;2.95;;;4.80;64.40;;;;;;5040739;28;19920;-79
2022/03/11 04:12:50;;;;;;;4.07;2.17;;;4.70;64.40;;;;;;5058312;28;20041;-79
2022/03/11 04:15:18;;;;;;;7.80;3.65;;;4.80;64.40;;;;;;5057803;28;20115;-79
2022/03/11 04:17:45;;;;;;;6.78;3.15;;;4.80;64.50;;;;;;5040586;28;20049;-80
2022/03/11 04:20:12;;;;;;;6.65;3.38;;;4.70;64.50;;;;;;5040450;28;20032;-80
2022/03/11 04:22:41;;;;;;;5.40;2.75;;;4.70;64.60;;;;;;5057091;28;20040;-80
2022/03/11 04:25:20;;;;;;;;;;;;;;;;;;;;;
2022/03/11 04:27:49;;;;;;;5.40;2.35;;;4.70;64.80;;;;;;5042302;28;20044;-79
2022/03/11 04:30:20;;;;;;;4.38;2.20;;;4.70;64.80;;;;;;5041774;28;20120;-78
2022/03/11 04:32:50;;;;;;;4.30;1.85;;;4.60;64.90;;;;;;5040730;28;20047;-78
2022/03/11 04:35:20;;;;;;;3.83;1.80;;;4.60;64.90;;;;;;5057190;28;20044;-78
2022/03/11 04:37:48;;;;;;;3.92;1.70;;;4.60;64.90;;;;;;5057105;28;20127;-78
2022/03/11 04:40:15;;;;;;;3.47;1.90;;;4.60;65.00;;;;;;5056446;28;20068;-79
2022/03/11 04:42:42;;;;;;;4.97;2.30;;;4.60;65.70;;;;;;5056593;28;20048;-79
2022/03/11 04:45:10;;;;;;;3.88;1.75;;;4.60;65.10;;;;;;5040258;28;20040;-79
2022/03/11 04:47:41;;;;;;;3.95;2.13;;;4.60;65.20;;;;;;5039966;28;20036;-78
2022/03/11 04:50:12;;;;;;;3.97;1.40;;;4.60;65.20;;;;;;5062979;28;20056;-78
2022/03/11 04:52:39;;;;;;;3.73;1.73;;;4.60;65.20;;;;;;5059880;28;20449;-79
2022/03/11 04:55:16;;;;;;;3.92;2.08;;;4.60;65.40;;;;;;5076912;28;20040;-78
2022/03/11 04:57:44;;;;;;;4.67;2.00;;;4.60;65.40;;;;;;5060126;28;20039;-78
2022/03/11 05:00:29;;;;;;;3.83;1.70;;;4.60;65.40;;;;;;5076326;28;20246;-78
2022/03/11 05:02:58;;;;;;;4.27;1.70;;;4.50;65.40;;;;;;5050204;28;20048;-78
2022/03/11 05:05:26;;;;;;;3.85;2.00;;;4.50;65.50;;;;;;5087116;28;20047;-78
2022/03/11 05:08:04;;;;;;;3.67;1.80;;;4.50;65.50;;;;;;5072722;28;20071;-78
2022/03/11 05:10:42;;;;;;;3.50;1.30;;;4.50;65.60;;;;;;5069926;28;20048;-78
2022/03/11 05:13:34;;;;;;;2.83;1.42;;;4.50;65.60;;;;;;5054280;28;20067;-78
2022/03/11 05:16:10;;;;;;;3.92;1.33;;;4.50;65.70;;;;;;5079793;28;20415;-78
2022/03/11 05:18:55;;;;;;;;;;;4.50;65.80;;;;;;5061494;28;20048;-78
2022/03/11 05:21:27;;;;;;;3.10;1.00;;;4.40;65.90;;;;;;5045259;28;20330;-78
2022/03/11 05:24:26;;;;;;;2.75;1.27;;;4.30;65.90;;;;;;5053491;28;20044;-78
2022/03/11 05:26:58;;;;;;;3.03;1.20;;;4.40;66.00;;;;;;5043766;28;20048;-77
2022/03/11 05:29:31;;;;;;;3.35;1.50;;;4.40;66.30;;;;;;5075707;28;20044;-77
2022/03/11 05:32:10;;;;;;;4.80;1.38;;;4.40;66.00;;;;;;5059098;28;20098;-77
2022/03/11 05:35:03;;;;;;;3.10;1.20;;;4.40;66.10;;;;;;5073734;28;20048;-78
2022/03/11 05:37:43;;;;;;;3.45;1.17;;;4.30;66.10;;;;;;5075596;28;20063;-77
2022/03/11 05:40:23;;;;;;;3.63;1.27;;;4.30;66.20;;;;;;5059536;28;20527;-77
2022/03/11 05:42:54;;;;;;;3.00;1.40;;;4.30;66.20;;;;;;5059259;28;20048;-78
2022/03/11 05:45:35;;;;;;;3.33;1.50;;;4.30;66.30;;;;;;5076707;28;20404;-78
2022/03/11 05:48:03;;;;;;;4.18;1.85;;;4.30;66.30;;;;;;5075304;28;20036;-78
2022/03/11 05:50:34;;;;;;;4.22;1.75;;;4.30;66.90;;;;;;5085490;28;20439;-78
2022/03/11 05:53:18;;;;;;;3.78;1.95;;;4.30;66.20;;;;;;5053650;28;20528;-78
2022/03/11 05:57:04;;;;;;;3.10;1.27;;;4.30;66.30;;;;;;5041645;28;20048;-78
2022/03/11 06:01:05;;;;;;;4.47;1.90;;;4.30;66.20;;;;;;5062593;28;20400;-78
2022/03/11 06:04:13;;;;;;;3.40;1.53;;;4.30;66.20;;;;;;4975063;28;20069;-78
2022/03/11 06:11:28;;;;;;;3.53;1.45;;;4.30;66.40;;;;;;5040571;28;20128;-77
2022/03/11 06:14:25;;;;;;;3.35;1.52;;;4.30;66.40;;;;;;4994291;28;20128;-77
2022/03/11 06:17:24;;;;;;;2.80;1.23;;;4.30;66.50;;;;;;4997280;28;20138;-78
2022/03/11 06:20:32;;;;;;;3.67;1.70;;;4.30;66.60;;;;;;4987553;28;20057;-77
2022/03/11 06:23:35;;;;;;;;;;;;;;;;;;;;;
2022/03/11 06:26:26;;;;;;;3.90;1.43;;;4.30;66.60;;;;;;5001784;28;20078;-77
2022/03/11 06:29:27;;;;;;;4.60;1.30;;;4.30;66.60;;;;;;4981126;28;20135;-77
2022/03/11 06:32:28;;;;;;;3.63;1.38;;;4.30;67.30;;;;;;4996736;28;20058;-77
2022/03/11 06:36:00;;;;;;;4.05;1.67;;;4.30;66.60;;;;;;5000407;28;20064;-78
2022/03/11 06:42:36;;;;;;;3.92;1.50;;;4.40;66.50;;;;;;4913667;29;20209;-77
2022/03/11 06:45:49;;;;;;;3.13;1.40;;;4.40;66.40;;;;;;4960257;28;20046;-77
2022/03/11 06:49:06;;;;;;;4.45;1.85;;;4.50;66.40;;;;;;4966556;28;20524;-77
2022/03/11 06:52:14;;;;;;;5.53;2.07;;;4.50;66.40;;;;;;5028243;28;20088;-78
2022/03/11 06:54:42;;;;;;;4.35;1.50;;;4.60;66.40;;;;;;4997455;28;20053;-77
2022/03/11 06:57:37;;;;;;;2.97;1.30;;;4.60;66.40;;;;;;5013552;28;20119;-77
2022/03/11 07:00:15;;;;;;;3.25;1.52;;;4.70;66.30;;;;;;5013693;28;20140;-79
2022/03/11 07:02:43;;;;;;;3.55;1.92;;;4.70;66.30;;;;;;5013520;28;20042;-78
2022/03/11 07:05:11;;;;;;;4.03;1.88;;;4.80;66.20;;;;;;4997411;28;20041;-80
2022/03/11 07:07:41;;;;;;;7.07;2.00;;;4.90;66.20;;;;;;5013645;28;20080;-79
2022/03/11 07:10:21;;;;;;;3.75;1.55;;;4.90;66.00;;;;;;5013579;28;20560;-79
2022/03/11 07:12:53;;;;;;;;;;;5.00;66.00;;;;;;5013722;28;20045;-77
2022/03/11 07:15:26;;;;;;;3.28;1.48;;;5.00;66.00;;;;;;5013951;28;19925;-77
2022/03/11 07:17:53;;;;;;;3.85;1.77;;;5.10;66.00;;;;;;5041599;28;20056;-77
2022/03/11 07:20:31;;;;;;;3.55;1.52;;;5.10;65.90;;;;;;5057545;28;20040;-79
2022/03/11 07:23:32;;;;;;;4.45;1.73;;;5.20;65.80;;;;;;5074293;28;20484;-78
2022/03/11 07:26:00;;;;;;;4.53;1.65;;;5.30;65.80;;;;;;5074065;28;20066;-79
2022/03/11 07:28:27;;;;;;;4.28;2.08;;;5.30;65.70;;;;;;5057758;28;20075;-79
2022/03/11 07:30:55;;;;;;;6.28;2.63;;;5.40;65.60;;;;;;5074596;28;20043;-77
2022/03/11 07:33:23;;;;;;;4.45;2.35;;;5.40;65.50;;;;;;5075607;28;20051;-79
2022/03/11 07:36:30;;;;;;;;;;;;;;;;;;;;;
2022/03/11 07:39:11;;;;;;;6.95;3.22;;;5.60;65.20;;;;;;5064105;28;20044;-78
2022/03/11 07:42:10;;;;;;;6.57;2.92;;;5.70;65.00;;;;;;5062627;28;20050;-79
2022/03/11 07:45:02;;;;;;;5.97;2.70;;;5.70;64.90;;;;;;5063863;28;20131;-79
2022/03/11 07:47:41;;;;;;;6.32;3.13;;;5.80;64.80;;;;;;5077127;28;20044;-79
2022/03/11 07:50:12;;;;;;;6.60;3.08;;;5.90;64.70;;;;;;5061259;28;20131;-79
2022/03/11 07:52:43;;;;;;;8.00;3.55;;;5.90;64.70;;;;;;5042246;28;20410;-79
2022/03/11 07:55:14;;;;;;;5.32;3.00;;;6.00;64.60;;;;;;5041467;28;20048;-78
2022/03/11 07:57:41;;;;;;;7.00;3.00;;;6.10;64.60;;;;;;5041464;28;20075;-78
2022/03/11 08:00:09;;;;;;;6.53;3.42;;;6.10;64.50;;;;;;5024746;28;20070;-78
2022/03/11 08:02:40;;;;;;;6.72;3.30;;;6.20;64.40;;;;;;5041921;28;20079;-77
2022/03/11 08:05:14;;;;;;;4.70;2.90;;;6.20;64.30;;;;;;5041372;28;20040;-77
2022/03/11 08:07:47;;;;;;;6.25;3.38;;;6.30;64.40;;;;;;5025788;28;20045;-77
2022/03/11 08:10:16;;;;;;;6.13;3.08;;;6.30;64.30;;;;;;5058195;28;20076;-77
2022/03/11 08:12:46;;;;;;;6.90;3.45;;;6.40;64.30;;;;;;5041890;28;20073;-77
2022/03/11 08:15:13;;;;;;;5.72;2.63;;;6.40;64.20;;;;;;5024978;28;20107;-78
2022/03/11 08:17:41;;;;;;;7.28;3.15;;;6.50;64.10;;;;;;5041266;28;20037;-78
2022/03/11 08:20:10;;;;;;;5.35;2.55;;;6.60;64.00;;;;;;5040823;28;20097;-78
2022/03/11 08:22:37;;;;;;;4.45;2.45;;;6.60;64.00;;;;;;5041040;28;20035;-78
2022/03/11 08:25:08;;;;;;;7.22;3.10;;;6.70;64.00;;;;;;5057326;28;20063;-80
2022/03/11 08:27:40;;;;;;;6.93;3.20;;;6.80;63.90;;;;;;5025110;28;20040;-80
2022/03/11 08:30:14;;;;;;;6.63;3.17;;;6.80;63.80;;;;;;5040425;28;20040;-80
2022/03/11 08:32:48;;;;;;;5.88;4.03;;;6.90;63.70;;;;;;5042497;28;20040;-79
2022/03/11 08:35:16;;;;;;;6.28;3.08;;;7.00;63.50;;;;;;5057381;28;20058;-81
2022/03/11 08:37:49;;;;;;;6.60;3.85;;;7.10;63.40;;;;;;5057806;28;20068;-80
2022/03/11 08:40:22;;;;;;;8.52;4.15;;;7.10;63.20;;;;;;5074760;28;20040;-80
2022/03/11 08:42:56;;;;;;;7.85;4.03;;;7.20;63.10;;;;;;5043208;28;20037;-80
2022/03/11 08:45:24;;;;;;;7.53;4.07;;;7.30;62.90;;;;;;5010566;28;20036;-80
2022/03/11 08:47:58;;;;;;;6.25;3.80;;;7.30;62.80;;;;;;5004218;28;20061;-81
2022/03/11 08:50:26;;;;;;;8.18;5.00;;;7.40;62.80;;;;;;5020889;28;20044;-81
2022/03/11 08:52:55;;;;;;;6.45;4.25;;;7.40;62.60;;;;;;5020159;28;20059;-81
2022/03/11 08:55:22;;;;;;;9.27;5.10;;;7.50;62.50;;;;;;5054100;28;20063;-81
2022/03/11 08:57:55;;;;;;;8.60;4.78;;;7.50;62.20;;;;;;5021080;28;20432;-81
2022/03/11 09:00:25;;;;;;;9.55;4.65;;;7.60;62.80;;;;;;5020356;28;20139;-80
2022/03/11 09:02:55;;;;;;;6.90;4.18;;;7.60;62.00;;;;;;5019837;28;20489;-81
2022/03/11 09:05:29;;;;;;;9.52;4.72;;;7.70;62.00;;;;;;5021164;28;20041;-80
2022/03/11 09:08:03;;;;;;;10.05;4.38;;;7.70;62.00;;;;;;5020783;28;20052;-81
2022/03/11 09:10:30;;;;;;;8.60;5.15;;;7.80;61.90;;;;;;5020050;28;20552;-80
2022/03/11 09:12:57;;;;;;;7.70;3.85;;;7.80;61.80;;;;;;5053954;28;20120;-81
2022/03/11 09:15:24;;;;;;;9.27;5.13;;;7.90;61.80;;;;;;5003532;28;20107;-81
2022/03/11 09:17:52;;;;;;;8.25;4.38;;;7.90;61.70;;;;;;5019450;28;20144;-81
2022/03/11 09:20:32;;;;;;;8.55;5.00;;;8.00;61.70;;;;;;5054031;28;20110;-82
2022/03/11 09:23:13;;;;;;;9.23;5.18;;;8.00;61.60;;;;;;5037609;28;20053;-78
2022/03/11 09:25:40;;;;;;;11.70;5.45;;;8.00;61.40;;;;;;5052181;28;20045;-79
2022/03/11 09:28:10;;;;;;;12.07;6.60;;;8.10;61.20;;;;;;5035263;28;20392;-76
2022/03/11 09:30:37;;;;;;;10.02;5.65;;;8.10;61.00;;;;;;5053789;28;20041;-76
2022/03/11 09:33:04;;;;;;;9.75;5.95;;;8.20;61.10;;;;;;5019516;28;20149;-79
2022/03/11 09:35:31;;;;;;;11.32;6.28;;;8.20;60.90;;;;;;5003264;28;20052;-79
2022/03/11 09:37:58;;;;;;;12.68;7.32;;;8.20;60.80;;;;;;5003146;28;20048;-79
2022/03/11 09:40:26;;;;;;;10.75;5.80;;;8.30;60.60;;;;;;5003214;28;20106;-79
2022/03/11 09:42:56;;;;;;;10.93;6.22;;;8.30;60.50;;;;;;5036171;28;20103;-79
2022/03/11 09:45:26;;;;;;;12.35;6.78;;;8.40;60.50;;;;;;5019680;28;20401;-81
2022/03/11 09:47:54;;;;;;;9.20;5.75;;;8.40;60.30;;;;;;5053699;28;20404;-78
2022/03/11 09:50:28;;;;;;;8.88;5.88;;;8.40;60.20;;;;;;5037221;28;20489;-78
2022/03/11 09:52:56;;;;;;;10.82;6.13;;;8.50;60.30;;;;;;5020296;28;20139;-76
2022/03/11 09:55:24;;;;;;;9.82;6.55;;;8.60;60.30;;;;;;5019553;28;20051;-78
2022/03/11 09:57:51;;;;;;;11.82;6.20;;;8.60;60.10;;;;;;5003218;28;20049;-78
2022/03/11 10:00:19;;;;;;;10.75;6.93;;;8.70;60.00;;;;;;5003221;28;20052;-79
2022/03/11 10:02:46;;;;;;;12.68;6.72;;;8.70;59.80;;;;;;5051936;28;20159;-79
2022/03/11 10:05:48;;;;;;;11.55;5.57;;;8.80;59.80;;;;;;5053122;28;20639;-78
2022/03/11 10:08:28;;;;;;;11.15;5.55;;;8.80;59.60;;;;;;5051625;28;20052;-79
2022/03/11 10:11:18;;;;;;;8.88;5.57;;;8.90;59.70;;;;;;5018998;28;20083;-79
2022/03/11 10:13:54;;;;;;;10.65;5.88;;;8.90;59.40;;;;;;5051838;28;20037;-78
2022/03/11 10:16:26;;;;;;;12.63;7.10;;;9.00;59.30;;;;;;5019572;28;20049;-79
2022/03/11 10:18:59;;;;;;;12.48;6.95;;;9.10;59.20;;;;;;5035347;28;20072;-81
2022/03/11 10:21:36;;;;;;;10.00;6.22;;;9.10;59.10;;;;;;5051930;28;20061;-82
2022/03/11 10:24:36;;;;;;;10.48;6.38;;;9.20;59.10;;;;;;5038342;28;20499;-81
2022/03/11 10:27:09;;;;;;;11.48;7.03;;;9.20;59.00;;;;;;5051723;28;20064;-82
2022/03/11 10:30:15;;;;;;;12.02;6.82;;;9.30;58.90;;;;;;5038580;28;20036;-80
2022/03/11 10:33:07;;;;;;;11.77;6.68;;;9.30;58.80;;;;;;5035172;28;20107;-80
2022/03/11 10:35:55;;;;;;;11.05;6.90;;;9.40;59.30;;;;;;5052681;28;20060;-80
2022/03/11 10:38:36;;;;;;;11.90;6.50;;;9.40;58.70;;;;;;5052981;28;20404;-81
2022/03/11 10:41:08;;;;;;;11.88;7.38;;;9.50;58.70;;;;;;5052908;28;20048;-81
2022/03/11 10:44:22;;;;;;;12.68;8.55;;;9.50;58.60;;;;;;5035859;28;20037;-81
2022/03/11 10:47:30;;;;;;;13.30;8.07;;;9.60;58.50;;;;;;5052379;28;20116;-80
2022/03/11 10:51:19;;;;;;;13.30;8.13;;;9.70;58.30;;;;;;4979801;28;20104;-80
2022/03/11 10:53:50;;;;;;;13.80;8.68;;;9.70;58.00;;;;;;5016874;28;20132;-78
2022/03/11 10:56:34;;;;;;;14.02;7.78;;;9.70;57.90;;;;;;5030183;28;20494;-79
2022/03/11 10:59:12;;;;;;;11.90;6.53;;;9.80;57.90;;;;;;5030592;28;20565;-80
2022/03/11 11:01:42;;;;;;;9.65;6.40;;;9.90;58.00;;;;;;5014128;28;20046;-79
2022/03/11 11:04:13;;;;;;;9.23;5.63;;;10.00;58.10;;;;;;5014255;28;20454;-80
2022/03/11 11:06:41;;;;;;;10.60;6.90;;;10.00;58.00;;;;;;4998134;28;20143;-79
2022/03/11 11:09:10;;;;;;;14.68;7.68;;;10.10;58.00;;;;;;5000957;28;20200;-79
2022/03/11 11:11:38;;;;;;;10.52;6.07;;;10.10;57.80;;;;;;5018787;28;20061;-78
2022/03/11 11:14:10;;;;;;;10.75;6.13;;;10.20;57.90;;;;;;5020881;28;20577;-80
2022/03/11 11:16:41;;;;;;;11.65;5.75;;;10.30;57.90;;;;;;5020491;28;20417;-80
2022/03/11 11:19:14;;;;;;;9.98;5.65;;;10.30;57.70;;;;;;5018162;28;20053;-79
2022/03/11 11:21:49;;;;;;;8.07;5.00;;;10.40;57.60;;;;;;5031833;28;20373;-80
2022/03/11 11:24:24;;;;;;;9.80;5.72;;;10.40;57.70;;;;;;5026065;28;20069;-78
2022/03/11 11:26:56;;;;;;;11.15;5.95;;;10.40;57.60;;;;;;5058366;28;20047;-80
2022/03/11 11:29:29;;;;;;;11.25;6.70;;;10.50;57.50;;;;;;5042417;28;20140;-80
2022/03/11 11:31:58;;;;;;;9.90;6.28;;;10.50;57.50;;;;;;5058562;28;20045;-80
2022/03/11 11:34:32;;;;;;;10.63;6.70;;;10.60;57.40;;;;;;5041946;28;20048;-77
2022/03/11 11:37:07;;;;;;;10.38;6.10;;;10.60;57.20;;;;;;5041841;28;20415;-80
2022/03/11 11:39:47;;;;;;;10.02;5.82;;;10.70;57.40;;;;;;5058740;28;20048;-80
2022/03/11 11:42:36;;;;;;;10.13;5.82;;;10.70;57.10;;;;;;5058984;28;20093;-80
2022/03/11 11:45:39;;;;;;;7.25;4.18;;;10.80;57.10;;;;;;5076005;28;20082;-79
2022/03/11 11:48:45;;;;;;;9.07;5.82;;;10.90;57.10;;;;;;5059051;28;20086;-80
2022/03/11 11:51:44;;;;;;;10.35;5.95;;;10.90;57.50;;;;;;5056696;28;20044;-80
2022/03/11 11:54:33;;;;;;;9.98;5.72;;;11.00;56.80;;;;;;5051289;28;20056;-79
2022/03/11 11:57:03;;;;;;;9.57;6.13;;;11.00;56.70;;;;;;5048469;28;20672;-79
2022/03/11 11:59:41;;;;;;;14.02;7.25;;;11.10;56.70;;;;;;5022180;28;20559;-83
2022/03/11 12:02:26;;;;;;;11.45;5.75;;;11.10;56.40;;;;;;5037891;28;20041;-82
2022/03/11 12:04:53;;;;;;;12.05;6.97;;;11.20;56.50;;;;;;5036220;28;20052;-81
2022/03/11 12:07:22;;;;;;;11.95;7.03;;;11.20;56.20;;;;;;5021420;28;20037;-85
2022/03/11 12:10:01;;;;;;;12.07;7.15;;;11.20;56.00;;;;;;5044091;28;20103;-86
2022/03/11 12:12:34;;;;;;;11.90;7.05;;;11.30;55.90;;;;;;5006936;28;20049;-90
2022/03/11 12:15:04;;;;;;;12.45;7.45;;;11.30;55.80;;;;;;5038510;28;20053;-84
2022/03/11 12:17:48;;;;;;;13.90;7.50;;;11.30;55.80;;;;;;5020753;28;20055;-78
2022/03/11 12:23:06;;;;;;;9.18;5.60;;;11.40;55.80;;;;;;5048369;28;20091;-82
2022/03/11 12:25:36;;;;;;;11.40;5.60;;;11.40;55.80;;;;;;5055976;28;20029;-81
2022/03/11 12:28:18;;;;;;;9.82;6.30;;;11.40;55.80;;;;;;5036663;28;20052;-81
2022/03/11 12:30:48;;;;;;;8.52;5.43;;;11.40;55.70;;;;;;5053066;28;20049;-79
2022/03/11 12:33:35;;;;;;;9.07;5.75;;;11.50;55.80;;;;;;5073155;28;20044;-79
2022/03/11 12:36:11;;;;;;;10.85;6.13;;;11.60;55.60;;;;;;5054653;28;20048;-82
2022/03/11 12:38:41;;;;;;;10.85;6.18;;;11.60;55.60;;;;;;5038347;28;20048;-80
2022/03/11 12:41:10;;;;;;;11.75;7.55;;;11.70;55.50;;;;;;5035520;28;20048;-79
2022/03/11 12:43:38;;;;;;;13.00;6.43;;;11.80;55.30;;;;;;5034445;28;20090;-81
2022/03/11 12:46:08;;;;;;;10.70;7.22;;;11.90;55.20;;;;;;5035020;28;20037;-79
2022/03/11 12:48:40;;;;;;;9.73;5.95;;;11.90;55.20;;;;;;5019716;28;20037;-80
2022/03/11 12:51:17;;;;;;;9.70;6.72;;;11.90;55.20;;;;;;5051393;28;20037;-80
2022/03/11 12:53:47;;;;;;;11.57;7.10;;;11.90;55.10;;;;;;5017690;28;20451;-79
2022/03/11 12:56:14;;;;;;;11.52;7.22;;;12.00;55.10;;;;;;5027787;28;20045;-81
2022/03/11 12:58:44;;;;;;;11.88;6.32;;;12.00;55.00;;;;;;5017748;28;20778;-78
2022/03/11 13:01:13;;;;;;;7.97;4.63;;;12.00;55.00;;;;;;5018189;28;20551;-79
2022/03/11 13:03:47;;;;;;;10.77;5.80;;;12.10;55.10;;;;;;5034954;28;20516;-80
2022/03/11 13:06:16;;;;;;;9.82;5.80;;;12.10;55.00;;;;;;5018463;28;20524;-82
2022/03/11 13:08:49;;;;;;;11.55;7.05;;;12.20;54.90;;;;;;5029614;28;20053;-80
2022/03/11 13:11:16;;;;;;;12.25;6.95;;;12.20;54.70;;;;;;5037488;28;20051;-80
2022/03/11 13:13:44;;;;;;;13.20;7.68;;;12.30;54.50;;;;;;5045992;28;20037;-79
2022/03/11 13:16:11;;;;;;;10.07;6.10;;;12.30;54.50;;;;;;5026573;28;20072;-81
2022/03/11 13:18:41;;;;;;;11.77;6.35;;;12.30;54.50;;;;;;5028473;28;20072;-80
2022/03/11 13:21:13;;;;;;;10.73;7.35;;;12.40;54.40;;;;;;5042121;28;20452;-80
2022/03/11 13:23:44;;;;;;;11.55;6.70;;;12.40;54.20;;;;;;5045023;28;20037;-80
2022/03/11 13:26:18;;;;;;;9.57;6.35;;;12.50;54.40;;;;;;5029732;28;20059;-80
2022/03/11 13:28:56;;;;;;;11.15;6.60;;;12.50;54.40;;;;;;5029538;28;20045;-80
2022/03/11 13:31:36;;;;;;;10.25;6.18;;;12.50;54.20;;;;;;5028622;28;20040;-79
2022/03/11 13:34:09;;;;;;;10.07;6.05;;;12.60;54.10;;;;;;5009870;28;20505;-79
2022/03/11 13:36:40;;;;;;;10.75;6.63;;;12.60;54.00;;;;;;5047161;28;20254;-79
2022/03/11 13:39:12;;;;;;;10.48;6.85;;;12.60;54.10;;;;;;5043282;28;20060;-79
2022/03/11 13:41:47;;;;;;;10.93;7.10;;;12.60;54.10;;;;;;5036027;28;20041;-77
2022/03/11 13:44:27;;;;;;;12.40;7.72;;;12.60;54.00;;;;;;5035590;28;20110;-78
2022/03/11 13:47:03;;;;;;;10.68;7.15;;;12.70;53.90;;;;;;5035860;28;20064;-76
2022/03/11 13:49:50;;;;;;;10.52;6.65;;;12.70;53.80;;;;;;5019518;28;20071;-77
2022/03/11 13:52:23;;;;;;;12.45;7.25;;;12.80;53.80;;;;;;5043546;28;20132;-80
2022/03/11 13:55:04;;;;;;;10.40;6.15;;;12.70;53.60;;;;;;5076177;28;20071;-81
2022/03/11 13:57:37;;;;;;;8.98;5.60;;;12.80;53.80;;;;;;5041023;28;20427;-82
2022/03/11 14:00:23;;;;;;;8.70;5.13;;;12.90;53.80;;;;;;5041161;28;20056;-78
2022/03/11 14:02:53;;;;;;;10.43;5.88;;;12.90;53.60;;;;;;5058695;28;20052;-80